GDACS is a cooperation framework between the United Nations, the European Commission and disaster managers worldwide to improve alerts, information exchange and coordination in the first phase after major sudden-onset disasters.

Overall Green alert Tropical Cyclone for JOVA-17
from 12 Aug 2017 03:00 UTC to 14 Aug 2017 00:00 UTC

GTS


GTS (Global Telecommunication Service) is the official Warning and Alerting channel by the World Meteorological Organization (WMO) adopted by several Warning Organizations. As soon as a new GTS message regarding Tropical Cyclones (WT) or Tsunami (WE) the messages are processed and possibly assigned to the specific event. When a new GTS message is present an new tab in the specific event report page is present. The presence of a GTS message is also shown in the home page with a dedicated icon.
Click on the messages list to visualize on the right the detailed text.

WTPZ32 KNHC 140231 RRA
TCPEP2

BULLETIN
POST-TROPICAL CYCLONE JOVA ADVISORY NUMBER 9
NWS NATIONAL HURRICANE CENTER MIAMI FL EP122017
800 PM PDT SUN AUG 13 2017

...JOVA BECOMES A REMNANT LOW...
..................................THIS IS THE LAST ADVISORY...


SUMMARY OF 800 PM PDT...0300 UTC...INFORMATION
----------------------------------------------
LOCATION...20.5N 119.7W
ABOUT 650 MI...1045 KM WSW OF THE SOUTHERN TIP OF BAJA CALIFORNIA
MAXIMUM SUSTAINED WINDS...30 MPH...45 KM/H
PRESENT MOVEMENT...W OR 270 DEGREES AT 14 MPH...22 KM/H
MINIMUM CENTRAL PRESSURE...1006 MB...29.71 INCHES


WATCHES AND WARNINGS
--------------------
THERE ARE NO COASTAL WATCHES OR WARNINGS IN EFFECT.


DISCUSSION AND 48-HOUR OUTLOOK
------------------------------
AT 800 PM PDT (0300 UTC), THE CENTER OF POST-TROPICAL CYCLONE JOVA
WAS LOCATED NEAR LATITUDE 20.5 NORTH, LONGITUDE 119.7 WEST. THE
POST-TROPICAL CYCLONE IS MOVING TOWARD THE WEST NEAR 14 MPH (22
KM/H), AND A WESTWARD TO WEST-SOUTHWESTWARD MOTION WITH A SLIGHT
DECREASE IN FORWARD SPEED IS EXPECTED OVER THE NEXT COUPLE OF DAYS.

MAXIMUM SUSTAINED WINDS ARE NEAR 30 MPH (45 KM/H) WITH HIGHER GUSTS.
SLOW WEAKENING IS FORECAST OVER THE NEXT FEW DAYS.

THE ESTIMATED MINIMUM CENTRAL PRESSURE IS 1006 MB (29.71 INCHES).


HAZARDS AFFECTING LAND
----------------------
NONE


NEXT ADVISORY
-------------
THIS IS THE LAST PUBLIC ADVISORY ISSUED BY THE NATIONAL HURRICANE
CENTER ON THIS SYSTEM. FOR ADDITIONAL INFORMATION ON THE REMNANT
LOW PLEASE SEE HIGH SEAS FORECASTS ISSUED BY THE NATIONAL WEATHER
SERVICE, UNDER AWIPS HEADER NFDHSFEPI, WMO HEADER FZPN02 KWBC, AND
ON THE WEB AT HTTP://WWW.OPC.NCEP.NOAA.GOV/SHTML/NFDHSFEPI.SHTML.

2017-08-14 05:25:00 WTPZ32KNHC140231RRA.TXT

2017-08-14 04:20:00 WTNT82EGRR140419.TXT

2017-08-14 04:20:00 WTNT80EGRR140419.TXT

2017-08-14 03:08:00 WTPN31PHNC140300.TXT

2017-08-14 02:35:00 WTPZ32KNHC140231.TXT

2017-08-14 02:35:00 WTPZ42KNHC140231.TXT

2017-08-14 02:34:00 WTPZ22KNHC140230.TXT

2017-08-13 20:57:00 WTPN31PHNC132100.TXT

2017-08-13 20:38:00 WTPZ42KNHC132033RRA.TXT

2017-08-13 20:37:00 WTPZ42KNHC132033.TXT

2017-08-13 20:36:00 WTPZ32KNHC132032.TXT

2017-08-13 20:36:00 WTPZ22KNHC132032.TXT

2017-08-13 15:03:00 WTPN31PHNC131600.TXT

2017-08-13 14:43:00 WTPZ42KNHC131438RRA.TXT

2017-08-13 14:42:00 WTPZ32KNHC131438.TXT

2017-08-13 14:42:00 WTPZ42KNHC131438.TXT

2017-08-13 14:41:00 WTPZ22KNHC131437.TXT

2017-08-13 13:53:00 WTPZ32KNHC130845RRA.TXT

2017-08-13 08:50:00 WTPZ42KNHC130845RRA.TXT

2017-08-13 08:49:00 WTPZ42KNHC130845.TXT

2017-08-13 08:49:00 WTPZ32KNHC130845.TXT

2017-08-13 08:49:00 WTPZ22KNHC130845.TXT

2017-08-13 04:20:00 WTNT82EGRR130419.TXT

2017-08-13 02:39:00 WTPZ42KNHC130234.TXT

2017-08-13 02:37:00 WTPZ32KNHC130233.TXT

2017-08-13 02:37:00 WTPZ22KNHC130233.TXT

2017-08-12 20:38:00 WTPZ42KNHC122033RRA.TXT

2017-08-12 20:37:00 WTPZ42KNHC122033.TXT

2017-08-12 20:36:00 WTPZ32KNHC122032.TXT

2017-08-12 20:36:00 WTPZ22KNHC122032.TXT

2017-08-12 14:41:00 WTPZ42KNHC121436RRA.TXT

2017-08-12 14:40:00 WTPZ42KNHC121436.TXT

2017-08-12 14:39:00 WTPZ32KNHC121435.TXT

2017-08-12 14:39:00 WTPZ22KNHC121435.TXT

2017-08-12 08:44:00 WTPZ42KNHC120839RRA.TXT

2017-08-12 08:43:00 WTPZ32KNHC120839.TXT

2017-08-12 08:43:00 WTPZ42KNHC120839.TXT

2017-08-12 08:43:00 WTPZ22KNHC120839.TXT

2017-08-12 08:30:00 WTPZ32KNHC120234RRA.TXT

2017-08-12 02:39:00 WTPZ42KNHC120234RRA.TXT

2017-08-12 02:39:00 WTPZ42KNHC120234.TXT

2017-08-12 02:39:00 WTPZ32KNHC120234.TXT

2017-08-12 02:37:00 WTPZ22KNHC120233CCA.TXT

2017-08-12 02:34:00 WTPZ22KNHC120230.TXT